sensor_id;sensor_type;location;lat;lon;timestamp;temperature;humidity
9919;DHT22;4998;51.024;13.828;2023-12-22T00:01:56;9.20;75.10
9919;DHT22;4998;51.024;13.828;2023-12-22T00:04:23;9.20;75.00
9919;DHT22;4998;51.024;13.828;2023-12-22T00:06:52;9.20;74.80
9919;DHT22;4998;51.024;13.828;2023-12-22T00:09:20;9.20;75.00
9919;DHT22;4998;51.024;13.828;2023-12-22T00:11:47;9.20;74.70
9919;DHT22;4998;51.024;13.828;2023-12-22T00:14:14;9.20;75.00
9919;DHT22;4998;51.024;13.828;2023-12-22T00:16:42;9.20;75.00
9919;DHT22;4998;51.024;13.828;2023-12-22T00:19:09;9.20;74.80
9919;DHT22;4998;51.024;13.828;2023-12-22T00:21:36;9.20;75.20
9919;DHT22;4998;51.024;13.828;2023-12-22T00:24:05;9.20;74.40
9919;DHT22;4998;51.024;13.828;2023-12-22T00:26:32;9.20;74.10
9919;DHT22;4998;51.024;13.828;2023-12-22T00:29:00;9.20;73.90
9919;DHT22;4998;51.024;13.828;2023-12-22T00:31:27;9.20;73.80
9919;DHT22;4998;51.024;13.828;2023-12-22T00:33:54;9.20;73.90
9919;DHT22;4998;51.024;13.828;2023-12-22T00:36:21;9.20;73.70
9919;DHT22;4998;51.024;13.828;2023-12-22T00:38:50;9.20;73.20
9919;DHT22;4998;51.024;13.828;2023-12-22T00:41:18;9.20;73.30
9919;DHT22;4998;51.024;13.828;2023-12-22T00:43:45;9.20;73.10
9919;DHT22;4998;51.024;13.828;2023-12-22T00:46:13;9.20;73.40
9919;DHT22;4998;51.024;13.828;2023-12-22T00:48:40;9.20;73.40
9919;DHT22;4998;51.024;13.828;2023-12-22T00:51:07;9.20;73.00
9919;DHT22;4998;51.024;13.828;2023-12-22T00:53:35;9.20;73.20
9919;DHT22;4998;51.024;13.828;2023-12-22T00:56:03;9.10;72.40
9919;DHT22;4998;51.024;13.828;2023-12-22T00:58:32;9.10;72.50
9919;DHT22;4998;51.024;13.828;2023-12-22T01:00:59;9.10;72.60
9919;DHT22;4998;51.024;13.828;2023-12-22T01:03:26;9.10;73.50
9919;DHT22;4998;51.024;13.828;2023-12-22T01:05:54;9.10;71.90
9919;DHT22;4998;51.024;13.828;2023-12-22T01:08:21;9.10;72.20
9919;DHT22;4998;51.024;13.828;2023-12-22T01:10:48;9.10;71.70
9919;DHT22;4998;51.024;13.828;2023-12-22T01:13:15;9.10;70.70
9919;DHT22;4998;51.024;13.828;2023-12-22T01:15:44;9.10;71.30
9919;DHT22;4998;51.024;13.828;2023-12-22T01:18:11;9.10;70.80
9919;DHT22;4998;51.024;13.828;2023-12-22T01:20:39;9.10;71.10
9919;DHT22;4998;51.024;13.828;2023-12-22T01:23:06;9.20;70.90
9919;DHT22;4998;51.024;13.828;2023-12-22T01:25:33;9.20;71.10
9919;DHT22;4998;51.024;13.828;2023-12-22T01:28:00;9.20;71.60
9919;DHT22;4998;51.024;13.828;2023-12-22T01:30:27;9.20;70.80
9919;DHT22;4998;51.024;13.828;2023-12-22T01:32:56;9.20;70.90
9919;DHT22;4998;51.024;13.828;2023-12-22T01:35:23;9.20;70.70
9919;DHT22;4998;51.024;13.828;2023-12-22T01:37:50;9.20;70.20
9919;DHT22;4998;51.024;13.828;2023-12-22T01:40:18;9.20;70.50
9919;DHT22;4998;51.024;13.828;2023-12-22T01:42:45;9.20;70.00
9919;DHT22;4998;51.024;13.828;2023-12-22T01:45:13;9.20;70.60
9919;DHT22;4998;51.024;13.828;2023-12-22T01:47:41;9.20;69.60
9919;DHT22;4998;51.024;13.828;2023-12-22T01:50:10;9.10;69.50
9919;DHT22;4998;51.024;13.828;2023-12-22T01:52:38;9.20;69.80
9919;DHT22;4998;51.024;13.828;2023-12-22T01:55:06;9.20;70.00
9919;DHT22;4998;51.024;13.828;2023-12-22T01:57:36;9.20;70.00
9919;DHT22;4998;51.024;13.828;2023-12-22T02:00:04;9.20;70.10
9919;DHT22;4998;51.024;13.828;2023-12-22T02:02:32;9.20;70.80
9919;DHT22;4998;51.024;13.828;2023-12-22T02:04:59;9.20;69.20
9919;DHT22;4998;51.024;13.828;2023-12-22T02:07:28;9.20;69.70
9919;DHT22;4998;51.024;13.828;2023-12-22T02:09:56;9.20;69.80
9919;DHT22;4998;51.024;13.828;2023-12-22T02:12:23;9.10;69.80
9919;DHT22;4998;51.024;13.828;2023-12-22T02:14:50;9.10;69.70
9919;DHT22;4998;51.024;13.828;2023-12-22T02:17:22;9.10;70.50
9919;DHT22;4998;51.024;13.828;2023-12-22T02:19:51;9.10;70.80
9919;DHT22;4998;51.024;13.828;2023-12-22T02:22:21;9.00;71.00
9919;DHT22;4998;51.024;13.828;2023-12-22T02:24:50;8.80;72.00
9919;DHT22;4998;51.024;13.828;2023-12-22T02:27:24;8.90;71.70
9919;DHT22;4998;51.024;13.828;2023-12-22T02:29:57;8.80;71.90
9919;DHT22;4998;51.024;13.828;2023-12-22T02:32:27;8.80;72.20
9919;DHT22;4998;51.024;13.828;2023-12-22T02:34:57;8.70;72.10
9919;DHT22;4998;51.024;13.828;2023-12-22T02:37:26;8.70;72.40
9919;DHT22;4998;51.024;13.828;2023-12-22T02:39:56;8.70;72.50
9919;DHT22;4998;51.024;13.828;2023-12-22T02:42:24;8.70;72.60
9919;DHT22;4998;51.024;13.828;2023-12-22T02:44:56;8.70;72.60
9919;DHT22;4998;51.024;13.828;2023-12-22T02:47:23;8.70;72.50
9919;DHT22;4998;51.024;13.828;2023-12-22T02:49:51;8.60;72.60
9919;DHT22;4998;51.024;13.828;2023-12-22T02:52:18;8.60;72.70
9919;DHT22;4998;51.024;13.828;2023-12-22T02:54:45;8.60;72.80
9919;DHT22;4998;51.024;13.828;2023-12-22T02:57:14;8.60;72.90
9919;DHT22;4998;51.024;13.828;2023-12-22T02:59:41;8.60;72.80
9919;DHT22;4998;51.024;13.828;2023-12-22T03:02:08;8.50;72.90
9919;DHT22;4998;51.024;13.828;2023-12-22T03:04:36;8.50;72.90
9919;DHT22;4998;51.024;13.828;2023-12-22T03:07:03;8.50;72.90
9919;DHT22;4998;51.024;13.828;2023-12-22T03:09:30;8.50;72.80
9919;DHT22;4998;51.024;13.828;2023-12-22T03:11:57;8.50;72.60
9919;DHT22;4998;51.024;13.828;2023-12-22T03:14:29;8.50;72.50
9919;DHT22;4998;51.024;13.828;2023-12-22T03:16:57;8.50;72.60
9919;DHT22;4998;51.024;13.828;2023-12-22T03:19:24;8.50;72.70
9919;DHT22;4998;51.024;13.828;2023-12-22T03:21:51;8.50;72.70
9919;DHT22;4998;51.024;13.828;2023-12-22T03:24:18;8.60;73.50
9919;DHT22;4998;51.024;13.828;2023-12-22T03:26:47;8.60;72.50
9919;DHT22;4998;51.024;13.828;2023-12-22T03:29:15;8.60;72.60
9919;DHT22;4998;51.024;13.828;2023-12-22T03:31:43;8.60;72.60
9919;DHT22;4998;51.024;13.828;2023-12-22T03:34:11;8.60;72.60
9919;DHT22;4998;51.024;13.828;2023-12-22T03:36:38;8.60;71.90
9919;DHT22;4998;51.024;13.828;2023-12-22T03:39:06;8.70;72.00
9919;DHT22;4998;51.024;13.828;2023-12-22T03:41:33;8.70;71.60
9919;DHT22;4998;51.024;13.828;2023-12-22T03:44:00;8.70;71.60
9919;DHT22;4998;51.024;13.828;2023-12-22T03:46:27;8.70;71.20
9919;DHT22;4998;51.024;13.828;2023-12-22T03:48:56;8.70;70.70
9919;DHT22;4998;51.024;13.828;2023-12-22T03:51:23;8.70;70.20
9919;DHT22;4998;51.024;13.828;2023-12-22T03:53:50;8.80;70.20
9919;DHT22;4998;51.024;13.828;2023-12-22T03:56:17;8.70;69.60
9919;DHT22;4998;51.024;13.828;2023-12-22T03:58:44;8.70;69.60
9919;DHT22;4998;51.024;13.828;2023-12-22T04:01:14;8.70;69.50
9919;DHT22;4998;51.024;13.828;2023-12-22T04:03:41;8.70;69.60
9919;DHT22;4998;51.024;13.828;2023-12-22T04:06:10;8.80;69.50
9919;DHT22;4998;51.024;13.828;2023-12-22T04:08:37;8.70;68.60
9919;DHT22;4998;51.024;13.828;2023-12-22T04:11:04;8.80;68.90
9919;DHT22;4998;51.024;13.828;2023-12-22T04:13:31;8.80;68.70
9919;DHT22;4998;51.024;13.828;2023-12-22T04:15:58;8.80;68.40
9919;DHT22;4998;51.024;13.828;2023-12-22T04:18:26;8.90;68.30
9919;DHT22;4998;51.024;13.828;2023-12-22T04:20:53;8.90;68.20
9919;DHT22;4998;51.024;13.828;2023-12-22T04:23:22;8.90;67.10
9919;DHT22;4998;51.024;13.828;2023-12-22T04:25:49;8.90;68.00
9919;DHT22;4998;51.024;13.828;2023-12-22T04:28:17;8.90;66.70
9919;DHT22;4998;51.024;13.828;2023-12-22T04:30:44;9.00;66.90
9919;DHT22;4998;51.024;13.828;2023-12-22T04:33:11;9.00;67.10
9919;DHT22;4998;51.024;13.828;2023-12-22T04:35:38;9.00;66.80
9919;DHT22;4998;51.024;13.828;2023-12-22T04:38:06;9.00;66.60
9919;DHT22;4998;51.024;13.828;2023-12-22T04:40:34;8.90;66.40
9919;DHT22;4998;51.024;13.828;2023-12-22T04:43:01;9.00;66.40
9919;DHT22;4998;51.024;13.828;2023-12-22T04:45:28;8.90;66.60
9919;DHT22;4998;51.024;13.828;2023-12-22T04:47:56;8.90;66.80
9919;DHT22;4998;51.024;13.828;2023-12-22T04:50:23;8.90;66.50
9919;DHT22;4998;51.024;13.828;2023-12-22T04:52:51;8.90;66.80
9919;DHT22;4998;51.024;13.828;2023-12-22T04:55:18;8.90;66.90
9919;DHT22;4998;51.024;13.828;2023-12-22T04:57:47;8.90;66.60
9919;DHT22;4998;51.024;13.828;2023-12-22T05:00:15;8.90;66.30
9919;DHT22;4998;51.024;13.828;2023-12-22T05:02:42;8.90;66.80
9919;DHT22;4998;51.024;13.828;2023-12-22T05:05:10;8.80;66.50
9919;DHT22;4998;51.024;13.828;2023-12-22T05:07:37;8.90;66.80
9919;DHT22;4998;51.024;13.828;2023-12-22T05:10:06;8.80;66.40
9919;DHT22;4998;51.024;13.828;2023-12-22T05:12:34;8.80;66.50
9919;DHT22;4998;51.024;13.828;2023-12-22T05:15:03;8.80;67.40
9919;DHT22;4998;51.024;13.828;2023-12-22T05:17:31;8.80;66.60
9919;DHT22;4998;51.024;13.828;2023-12-22T05:19:59;8.80;66.80
9919;DHT22;4998;51.024;13.828;2023-12-22T05:22:26;8.80;67.10
9919;DHT22;4998;51.024;13.828;2023-12-22T05:24:57;8.80;67.10
9919;DHT22;4998;51.024;13.828;2023-12-22T05:27:25;8.80;67.40
9919;DHT22;4998;51.024;13.828;2023-12-22T05:29:52;8.70;67.50
9919;DHT22;4998;51.024;13.828;2023-12-22T05:32:21;8.70;67.70
9919;DHT22;4998;51.024;13.828;2023-12-22T05:34:48;8.70;67.80
9919;DHT22;4998;51.024;13.828;2023-12-22T05:37:15;8.70;68.00
9919;DHT22;4998;51.024;13.828;2023-12-22T05:39:43;8.60;68.10
9919;DHT22;4998;51.024;13.828;2023-12-22T05:42:11;8.60;68.20
9919;DHT22;4998;51.024;13.828;2023-12-22T05:44:38;8.50;68.30
9919;DHT22;4998;51.024;13.828;2023-12-22T05:47:05;8.50;68.40
9919;DHT22;4998;51.024;13.828;2023-12-22T05:49:34;8.50;68.70
9919;DHT22;4998;51.024;13.828;2023-12-22T05:52:01;8.50;69.00
9919;DHT22;4998;51.024;13.828;2023-12-22T05:54:27;8.40;69.00
9919;DHT22;4998;51.024;13.828;2023-12-22T05:56:57;8.40;69.20
9919;DHT22;4998;51.024;13.828;2023-12-22T05:59:24;8.30;69.20
9919;DHT22;4998;51.024;13.828;2023-12-22T06:01:53;8.30;69.10
9919;DHT22;4998;51.024;13.828;2023-12-22T06:04:20;8.30;69.10
9919;DHT22;4998;51.024;13.828;2023-12-22T06:06:49;8.30;69.30
9919;DHT22;4998;51.024;13.828;2023-12-22T06:09:17;8.30;69.30
9919;DHT22;4998;51.024;13.828;2023-12-22T06:11:46;8.20;69.30
9919;DHT22;4998;51.024;13.828;2023-12-22T06:14:14;8.30;69.60
9919;DHT22;4998;51.024;13.828;2023-12-22T06:16:41;8.30;69.60
9919;DHT22;4998;51.024;13.828;2023-12-22T06:19:08;8.30;69.80
9919;DHT22;4998;51.024;13.828;2023-12-22T06:21:37;8.30;70.80
9919;DHT22;4998;51.024;13.828;2023-12-22T06:24:07;8.30;70.00
9919;DHT22;4998;51.024;13.828;2023-12-22T06:26:35;8.30;70.20
9919;DHT22;4998;51.024;13.828;2023-12-22T06:29:03;8.30;71.00
9919;DHT22;4998;51.024;13.828;2023-12-22T06:31:30;8.30;70.20
9919;DHT22;4998;51.024;13.828;2023-12-22T06:33:57;8.30;70.10
9919;DHT22;4998;51.024;13.828;2023-12-22T06:36:28;8.30;69.60
9919;DHT22;4998;51.024;13.828;2023-12-22T06:38:57;8.30;69.60
9919;DHT22;4998;51.024;13.828;2023-12-22T06:41:27;8.30;69.70
9919;DHT22;4998;51.024;13.828;2023-12-22T06:43:55;8.30;69.80
9919;DHT22;4998;51.024;13.828;2023-12-22T06:46:23;8.20;69.70
9919;DHT22;4998;51.024;13.828;2023-12-22T06:48:52;8.20;69.70
9919;DHT22;4998;51.024;13.828;2023-12-22T06:51:20;8.20;69.50
9919;DHT22;4998;51.024;13.828;2023-12-22T06:53:48;8.20;69.10
9919;DHT22;4998;51.024;13.828;2023-12-22T06:56:17;8.20;69.10
9919;DHT22;4998;51.024;13.828;2023-12-22T06:58:47;8.20;68.80
9919;DHT22;4998;51.024;13.828;2023-12-22T07:01:18;8.20;69.00
9919;DHT22;4998;51.024;13.828;2023-12-22T07:03:47;8.20;68.70
9919;DHT22;4998;51.024;13.828;2023-12-22T07:06:15;8.20;68.90
9919;DHT22;4998;51.024;13.828;2023-12-22T07:08:42;8.20;68.80
9919;DHT22;4998;51.024;13.828;2023-12-22T07:11:10;8.20;68.70
9919;DHT22;4998;51.024;13.828;2023-12-22T07:13:37;8.20;68.60
9919;DHT22;4998;51.024;13.828;2023-12-22T07:16:06;8.10;68.10
9919;DHT22;4998;51.024;13.828;2023-12-22T07:18:33;8.10;68.40
9919;DHT22;4998;51.024;13.828;2023-12-22T07:21:01;8.10;68.50
9919;DHT22;4998;51.024;13.828;2023-12-22T07:23:27;8.10;68.50
9919;DHT22;4998;51.024;13.828;2023-12-22T07:25:55;8.10;68.60
9919;DHT22;4998;51.024;13.828;2023-12-22T07:28:24;8.10;68.40
9919;DHT22;4998;51.024;13.828;2023-12-22T07:30:53;8.00;68.50
9919;DHT22;4998;51.024;13.828;2023-12-22T07:33:22;8.00;69.50
9919;DHT22;4998;51.024;13.828;2023-12-22T07:35:50;8.00;68.70
9919;DHT22;4998;51.024;13.828;2023-12-22T07:38:17;8.00;68.80
9919;DHT22;4998;51.024;13.828;2023-12-22T07:40:44;8.00;69.10
9919;DHT22;4998;51.024;13.828;2023-12-22T07:43:12;8.00;69.40
9919;DHT22;4998;51.024;13.828;2023-12-22T07:45:40;8.00;69.50
9919;DHT22;4998;51.024;13.828;2023-12-22T07:48:08;8.00;69.40
9919;DHT22;4998;51.024;13.828;2023-12-22T07:50:36;8.00;69.60
9919;DHT22;4998;51.024;13.828;2023-12-22T07:53:04;8.00;69.70
9919;DHT22;4998;51.024;13.828;2023-12-22T07:55:31;8.00;70.20
9919;DHT22;4998;51.024;13.828;2023-12-22T07:57:58;7.90;70.50
9919;DHT22;4998;51.024;13.828;2023-12-22T08:00:25;7.90;71.00
9919;DHT22;4998;51.024;13.828;2023-12-22T08:02:53;7.90;71.50
9919;DHT22;4998;51.024;13.828;2023-12-22T08:05:20;7.90;71.60
9919;DHT22;4998;51.024;13.828;2023-12-22T08:07:49;7.90;72.10
9919;DHT22;4998;51.024;13.828;2023-12-22T08:10:17;7.80;72.90
9919;DHT22;4998;51.024;13.828;2023-12-22T08:12:44;7.80;74.00
9919;DHT22;4998;51.024;13.828;2023-12-22T08:15:11;7.70;74.40
9919;DHT22;4998;51.024;13.828;2023-12-22T08:17:46;7.60;75.20
9919;DHT22;4998;51.024;13.828;2023-12-22T08:20:16;7.40;75.50
9919;DHT22;4998;51.024;13.828;2023-12-22T08:22:45;7.30;75.50
9919;DHT22;4998;51.024;13.828;2023-12-22T08:25:13;7.10;76.20
9919;DHT22;4998;51.024;13.828;2023-12-22T08:27:41;6.90;76.40
9919;DHT22;4998;51.024;13.828;2023-12-22T08:30:10;6.70;76.80
9919;DHT22;4998;51.024;13.828;2023-12-22T08:32:37;6.50;77.60
9919;DHT22;4998;51.024;13.828;2023-12-22T08:35:05;6.30;78.00
9919;DHT22;4998;51.024;13.828;2023-12-22T08:37:33;6.20;78.80
9919;DHT22;4998;51.024;13.828;2023-12-22T08:40:00;6.00;79.80
9919;DHT22;4998;51.024;13.828;2023-12-22T08:42:29;5.90;80.10
9919;DHT22;4998;51.024;13.828;2023-12-22T08:44:57;5.80;80.70
9919;DHT22;4998;51.024;13.828;2023-12-22T08:47:24;5.80;81.00
9919;DHT22;4998;51.024;13.828;2023-12-22T08:49:52;5.60;82.20
9919;DHT22;4998;51.024;13.828;2023-12-22T08:52:19;5.60;82.10
9919;DHT22;4998;51.024;13.828;2023-12-22T08:54:46;5.60;82.00
9919;DHT22;4998;51.024;13.828;2023-12-22T08:57:14;5.60;82.80
9919;DHT22;4998;51.024;13.828;2023-12-22T08:59:43;5.50;83.00
9919;DHT22;4998;51.024;13.828;2023-12-22T09:02:12;5.50;83.60
9919;DHT22;4998;51.024;13.828;2023-12-22T09:04:40;5.50;84.40
9919;DHT22;4998;51.024;13.828;2023-12-22T09:07:08;5.50;85.30
9919;DHT22;4998;51.024;13.828;2023-12-22T09:09:35;5.50;85.50
9919;DHT22;4998;51.024;13.828;2023-12-22T09:12:03;5.60;86.10
9919;DHT22;4998;51.024;13.828;2023-12-22T09:14:30;5.60;86.20
9919;DHT22;4998;51.024;13.828;2023-12-22T09:16:59;5.60;87.60
9919;DHT22;4998;51.024;13.828;2023-12-22T09:19:26;5.70;88.40
9919;DHT22;4998;51.024;13.828;2023-12-22T09:21:53;5.70;88.30
9919;DHT22;4998;51.024;13.828;2023-12-22T09:24:21;5.70;89.30
9919;DHT22;4998;51.024;13.828;2023-12-22T09:26:48;5.80;88.80
9919;DHT22;4998;51.024;13.828;2023-12-22T09:29:16;5.80;88.70
9919;DHT22;4998;51.024;13.828;2023-12-22T09:31:44;5.80;88.80
9919;DHT22;4998;51.024;13.828;2023-12-22T09:34:13;5.90;89.30
9919;DHT22;4998;51.024;13.828;2023-12-22T09:36:40;5.90;89.20
9919;DHT22;4998;51.024;13.828;2023-12-22T09:39:07;5.90;89.00
9919;DHT22;4998;51.024;13.828;2023-12-22T09:41:34;6.00;88.90
9919;DHT22;4998;51.024;13.828;2023-12-22T09:44:04;6.00;88.90
9919;DHT22;4998;51.024;13.828;2023-12-22T09:46:34;6.00;89.10
9919;DHT22;4998;51.024;13.828;2023-12-22T09:49:02;6.10;89.00
9919;DHT22;4998;51.024;13.828;2023-12-22T09:51:32;6.10;88.80
9919;DHT22;4998;51.024;13.828;2023-12-22T09:53:59;6.20;89.30
9919;DHT22;4998;51.024;13.828;2023-12-22T09:56:29;6.20;89.10
9919;DHT22;4998;51.024;13.828;2023-12-22T09:58:58;6.20;89.10
9919;DHT22;4998;51.024;13.828;2023-12-22T10:01:27;6.30;89.40
9919;DHT22;4998;51.024;13.828;2023-12-22T10:03:55;6.40;89.50
9919;DHT22;4998;51.024;13.828;2023-12-22T10:06:22;6.40;89.20
9919;DHT22;4998;51.024;13.828;2023-12-22T10:08:53;6.50;88.90
9919;DHT22;4998;51.024;13.828;2023-12-22T10:11:22;6.60;88.70
9919;DHT22;4998;51.024;13.828;2023-12-22T10:13:50;6.70;88.20
9919;DHT22;4998;51.024;13.828;2023-12-22T10:16:19;6.70;87.80
9919;DHT22;4998;51.024;13.828;2023-12-22T10:18:46;6.80;89.00
9919;DHT22;4998;51.024;13.828;2023-12-22T10:21:14;6.90;89.60
9919;DHT22;4998;51.024;13.828;2023-12-22T10:23:41;7.10;88.90
9919;DHT22;4998;51.024;13.828;2023-12-22T10:26:13;7.30;86.80
9919;DHT22;4998;51.024;13.828;2023-12-22T10:28:42;7.40;84.10
9919;DHT22;4998;51.024;13.828;2023-12-22T10:31:09;7.60;83.50
9919;DHT22;4998;51.024;13.828;2023-12-22T10:33:37;7.60;82.40
9919;DHT22;4998;51.024;13.828;2023-12-22T10:36:07;7.70;80.40
9919;DHT22;4998;51.024;13.828;2023-12-22T10:38:35;7.80;79.10
9919;DHT22;4998;51.024;13.828;2023-12-22T10:41:03;7.80;77.60
9919;DHT22;4998;51.024;13.828;2023-12-22T10:43:37;7.90;77.90
9919;DHT22;4998;51.024;13.828;2023-12-22T10:46:04;7.90;77.40
9919;DHT22;4998;51.024;13.828;2023-12-22T10:48:33;8.00;77.40
9919;DHT22;4998;51.024;13.828;2023-12-22T10:51:01;8.00;76.60
9919;DHT22;4998;51.024;13.828;2023-12-22T10:53:28;8.00;76.50
9919;DHT22;4998;51.024;13.828;2023-12-22T10:55:56;8.00;76.80
9919;DHT22;4998;51.024;13.828;2023-12-22T10:58:24;8.10;76.20
9919;DHT22;4998;51.024;13.828;2023-12-22T11:00:53;8.10;76.20
9919;DHT22;4998;51.024;13.828;2023-12-22T11:03:23;8.10;76.20
9919;DHT22;4998;51.024;13.828;2023-12-22T11:05:55;8.10;76.30
9919;DHT22;4998;51.024;13.828;2023-12-22T11:08:25;8.10;75.90
9919;DHT22;4998;51.024;13.828;2023-12-22T11:10:57;8.10;75.70
9919;DHT22;4998;51.024;13.828;2023-12-22T11:13:25;8.10;77.10
9919;DHT22;4998;51.024;13.828;2023-12-22T11:15:54;8.10;77.70
9919;DHT22;4998;51.024;13.828;2023-12-22T11:18:22;8.10;78.20
9919;DHT22;4998;51.024;13.828;2023-12-22T11:20:51;7.90;78.20
9919;DHT22;4998;51.024;13.828;2023-12-22T11:23:19;7.80;78.80
9919;DHT22;4998;51.024;13.828;2023-12-22T11:25:48;7.70;79.30
9919;DHT22;4998;51.024;13.828;2023-12-22T11:28:20;7.60;79.80
9919;DHT22;4998;51.024;13.828;2023-12-22T11:30:49;7.50;80.20
9919;DHT22;4998;51.024;13.828;2023-12-22T11:33:20;7.40;81.00
9919;DHT22;4998;51.024;13.828;2023-12-22T11:35:49;7.30;81.60
9919;DHT22;4998;51.024;13.828;2023-12-22T11:38:17;7.40;82.30
9919;DHT22;4998;51.024;13.828;2023-12-22T11:40:44;7.30;82.60
9919;DHT22;4998;51.024;13.828;2023-12-22T11:43:12;7.30;83.00
9919;DHT22;4998;51.024;13.828;2023-12-22T11:45:41;7.40;83.30
9919;DHT22;4998;51.024;13.828;2023-12-22T11:48:10;7.40;83.50
9919;DHT22;4998;51.024;13.828;2023-12-22T11:50:39;7.40;83.60
9919;DHT22;4998;51.024;13.828;2023-12-22T11:53:20;7.50;83.20
9919;DHT22;4998;51.024;13.828;2023-12-22T11:56:01;7.50;83.10
9919;DHT22;4998;51.024;13.828;2023-12-22T11:58:34;7.60;82.90
9919;DHT22;4998;51.024;13.828;2023-12-22T12:01:01;7.60;82.60
9919;DHT22;4998;51.024;13.828;2023-12-22T12:03:30;7.70;82.60
9919;DHT22;4998;51.024;13.828;2023-12-22T12:06:15;7.70;82.30
9919;DHT22;4998;51.024;13.828;2023-12-22T12:08:43;7.70;82.20
9919;DHT22;4998;51.024;13.828;2023-12-22T12:11:10;7.80;82.10
9919;DHT22;4998;51.024;13.828;2023-12-22T12:13:42;7.80;81.70
9919;DHT22;4998;51.024;13.828;2023-12-22T12:16:11;7.90;81.50
9919;DHT22;4998;51.024;13.828;2023-12-22T12:18:39;7.90;81.30
9919;DHT22;4998;51.024;13.828;2023-12-22T12:21:07;8.00;81.30
9919;DHT22;4998;51.024;13.828;2023-12-22T12:23:36;8.00;81.20
9919;DHT22;4998;51.024;13.828;2023-12-22T12:26:06;8.10;81.30
9919;DHT22;4998;51.024;13.828;2023-12-22T12:28:34;8.10;80.80
9919;DHT22;4998;51.024;13.828;2023-12-22T12:31:04;8.20;80.70
9919;DHT22;4998;51.024;13.828;2023-12-22T12:33:32;8.30;80.80
9919;DHT22;4998;51.024;13.828;2023-12-22T12:36:00;8.40;80.60
9919;DHT22;4998;51.024;13.828;2023-12-22T12:38:38;8.40;80.40
9919;DHT22;4998;51.024;13.828;2023-12-22T12:41:09;8.50;80.20
9919;DHT22;4998;51.024;13.828;2023-12-22T12:43:41;8.50;80.00
9919;DHT22;4998;51.024;13.828;2023-12-22T12:46:09;8.60;79.20
9919;DHT22;4998;51.024;13.828;2023-12-22T12:48:37;8.60;78.10
9919;DHT22;4998;51.024;13.828;2023-12-22T12:51:05;8.60;77.80
9919;DHT22;4998;51.024;13.828;2023-12-22T12:53:33;8.60;77.10
9919;DHT22;4998;51.024;13.828;2023-12-22T12:56:02;8.50;76.60
9919;DHT22;4998;51.024;13.828;2023-12-22T12:58:29;8.50;77.20
9919;DHT22;4998;51.024;13.828;2023-12-22T13:01:08;8.40;77.10
9919;DHT22;4998;51.024;13.828;2023-12-22T13:03:52;8.30;77.20
9919;DHT22;4998;51.024;13.828;2023-12-22T13:06:19;8.20;77.50
9919;DHT22;4998;51.024;13.828;2023-12-22T13:08:50;8.10;78.00
9919;DHT22;4998;51.024;13.828;2023-12-22T13:11:21;7.90;78.50
9919;DHT22;4998;51.024;13.828;2023-12-22T13:13:49;7.80;78.90
9919;DHT22;4998;51.024;13.828;2023-12-22T13:16:18;7.80;79.50
9919;DHT22;4998;51.024;13.828;2023-12-22T13:18:47;7.70;80.30
9919;DHT22;4998;51.024;13.828;2023-12-22T13:21:14;7.60;80.50
9919;DHT22;4998;51.024;13.828;2023-12-22T13:23:42;7.50;80.90
9919;DHT22;4998;51.024;13.828;2023-12-22T13:26:18;7.40;81.20
9919;DHT22;4998;51.024;13.828;2023-12-22T13:28:46;7.40;82.50
9919;DHT22;4998;51.024;13.828;2023-12-22T13:31:14;7.20;82.50
9919;DHT22;4998;51.024;13.828;2023-12-22T13:33:44;7.20;82.50
9919;DHT22;4998;51.024;13.828;2023-12-22T13:36:11;7.10;83.40
9919;DHT22;4998;51.024;13.828;2023-12-22T13:38:39;7.10;84.00
9919;DHT22;4998;51.024;13.828;2023-12-22T13:41:07;7.00;84.50
9919;DHT22;4998;51.024;13.828;2023-12-22T13:43:35;7.00;84.80
9919;DHT22;4998;51.024;13.828;2023-12-22T13:46:04;6.90;84.80
9919;DHT22;4998;51.024;13.828;2023-12-22T13:48:33;6.90;86.00
9919;DHT22;4998;51.024;13.828;2023-12-22T13:51:01;6.80;85.50
9919;DHT22;4998;51.024;13.828;2023-12-22T13:53:29;6.80;85.80
9919;DHT22;4998;51.024;13.828;2023-12-22T13:55:57;6.70;86.00
9919;DHT22;4998;51.024;13.828;2023-12-22T13:58:24;6.70;87.10
9919;DHT22;4998;51.024;13.828;2023-12-22T14:00:53;6.60;86.50
9919;DHT22;4998;51.024;13.828;2023-12-22T14:03:21;6.60;86.90
9919;DHT22;4998;51.024;13.828;2023-12-22T14:05:49;6.50;87.20
9919;DHT22;4998;51.024;13.828;2023-12-22T14:08:16;6.50;87.30
9919;DHT22;4998;51.024;13.828;2023-12-22T14:10:46;6.50;88.20
9919;DHT22;4998;51.024;13.828;2023-12-22T14:13:14;6.50;88.40
9919;DHT22;4998;51.024;13.828;2023-12-22T14:15:42;6.50;88.40
9919;DHT22;4998;51.024;13.828;2023-12-22T14:18:10;6.50;88.80
9919;DHT22;4998;51.024;13.828;2023-12-22T14:20:38;6.40;88.90
9919;DHT22;4998;51.024;13.828;2023-12-22T14:23:05;6.40;89.70
9919;DHT22;4998;51.024;13.828;2023-12-22T14:25:33;6.40;89.00
9919;DHT22;4998;51.024;13.828;2023-12-22T14:28:00;6.40;89.00
9919;DHT22;4998;51.024;13.828;2023-12-22T14:30:27;6.40;89.00
9919;DHT22;4998;51.024;13.828;2023-12-22T14:32:54;6.40;89.30
9919;DHT22;4998;51.024;13.828;2023-12-22T14:35:21;6.40;89.60
9919;DHT22;4998;51.024;13.828;2023-12-22T14:37:50;6.40;89.70
9919;DHT22;4998;51.024;13.828;2023-12-22T14:40:17;6.40;90.00
9919;DHT22;4998;51.024;13.828;2023-12-22T14:42:45;6.40;90.00
9919;DHT22;4998;51.024;13.828;2023-12-22T14:45:12;6.40;90.10
9919;DHT22;4998;51.024;13.828;2023-12-22T14:47:41;6.40;90.10
9919;DHT22;4998;51.024;13.828;2023-12-22T14:50:08;6.40;90.10
9919;DHT22;4998;51.024;13.828;2023-12-22T14:52:35;6.40;90.10
9919;DHT22;4998;51.024;13.828;2023-12-22T14:55:05;6.40;90.10
9919;DHT22;4998;51.024;13.828;2023-12-22T14:57:33;6.40;90.10
9919;DHT22;4998;51.024;13.828;2023-12-22T15:00:00;6.40;89.80
9919;DHT22;4998;51.024;13.828;2023-12-22T15:02:27;6.40;90.20
9919;DHT22;4998;51.024;13.828;2023-12-22T15:04:55;6.40;90.20
9919;DHT22;4998;51.024;13.828;2023-12-22T15:07:22;6.40;90.30
9919;DHT22;4998;51.024;13.828;2023-12-22T15:09:49;6.50;90.30
9919;DHT22;4998;51.024;13.828;2023-12-22T15:12:18;6.50;90.30
9919;DHT22;4998;51.024;13.828;2023-12-22T15:14:45;6.50;90.40
9919;DHT22;4998;51.024;13.828;2023-12-22T15:17:13;6.50;90.30
9919;DHT22;4998;51.024;13.828;2023-12-22T15:19:40;6.50;90.50
9919;DHT22;4998;51.024;13.828;2023-12-22T15:22:09;6.50;90.50
9919;DHT22;4998;51.024;13.828;2023-12-22T15:24:36;6.50;90.50
9919;DHT22;4998;51.024;13.828;2023-12-22T15:27:06;6.50;90.50
9919;DHT22;4998;51.024;13.828;2023-12-22T15:29:35;6.50;90.90
9919;DHT22;4998;51.024;13.828;2023-12-22T15:32:02;6.50;90.60
9919;DHT22;4998;51.024;13.828;2023-12-22T15:34:29;6.50;90.60
9919;DHT22;4998;51.024;13.828;2023-12-22T15:36:57;6.60;90.60
9919;DHT22;4998;51.024;13.828;2023-12-22T15:39:24;6.60;90.70
9919;DHT22;4998;51.024;13.828;2023-12-22T15:41:51;6.60;90.60
9919;DHT22;4998;51.024;13.828;2023-12-22T15:44:18;6.60;90.70
9919;DHT22;4998;51.024;13.828;2023-12-22T15:46:47;6.60;90.70
9919;DHT22;4998;51.024;13.828;2023-12-22T15:49:14;6.70;90.80
9919;DHT22;4998;51.024;13.828;2023-12-22T15:51:41;6.70;90.90
9919;DHT22;4998;51.024;13.828;2023-12-22T15:54:08;6.70;91.00
9919;DHT22;4998;51.024;13.828;2023-12-22T15:56:36;6.80;91.00
9919;DHT22;4998;51.024;13.828;2023-12-22T15:59:03;6.80;91.00
9919;DHT22;4998;51.024;13.828;2023-12-22T16:01:31;6.80;91.10
9919;DHT22;4998;51.024;13.828;2023-12-22T16:04:00;6.80;91.40
9919;DHT22;4998;51.024;13.828;2023-12-22T16:06:27;6.80;91.40
9919;DHT22;4998;51.024;13.828;2023-12-22T16:08:54;6.80;91.50